Time;durP1;ratioP1;P1;durP2;ratioP2;P2;SDS_P1;SDS_P2;PMS_P1;PMS_P2;Temp;Humidity;BMP_temperature;BMP_pressure;BME280_temperature;BME280_humidity;BME280_pressure;Samples;Min_cycle;Max_cycle;Signal;HPM_P1;HPM_P2
2022/09/07 00:01:28;;;;;;;3.90;1.67;;;22.10;99.90;;;;;;7391254;19;20138;-76
2022/09/07 00:03:55;;;;;;;2.17;1.63;;;22.10;99.90;;;;;;7390403;19;20138;-76
2022/09/07 00:06:21;;;;;;;3.15;1.58;;;22.10;99.90;;;;;;7391817;19;20745;-76
2022/09/07 00:08:47;;;;;;;2.40;1.50;;;22.10;99.90;;;;;;7389433;19;20155;-77
2022/09/07 00:11:16;;;;;;;3.13;1.40;;;22.10;99.90;;;;;;7390892;19;20607;-77
2022/09/07 00:13:44;;;;;;;2.65;1.10;;;22.00;99.90;;;;;;7390811;19;20169;-76
2022/09/07 00:16:14;;;;;;;1.50;1.38;;;21.90;99.90;;;;;;7391669;19;20134;-76
2022/09/07 00:18:40;;;;;;;2.05;1.13;;;21.80;99.90;;;;;;7388455;19;20138;-77
2022/09/07 00:21:08;;;;;;;1.73;0.93;;;21.80;99.90;;;;;;7391776;19;20138;-77
2022/09/07 00:23:36;;;;;;;2.17;0.95;;;21.80;99.90;;;;;;7390209;19;20502;-77
2022/09/07 00:26:04;;;;;;;2.97;1.38;;;21.90;99.90;;;;;;7390722;19;20515;-76
2022/09/07 00:28:31;;;;;;;3.17;1.50;;;21.90;99.90;;;;;;7390068;19;20205;-77
2022/09/07 00:30:57;;;;;;;2.45;1.20;;;22.00;99.90;;;;;;7392612;19;20131;-77
2022/09/07 00:33:23;;;;;;;3.92;1.23;;;22.00;99.90;;;;;;7394105;19;20138;-77
2022/09/07 00:35:49;;;;;;;2.28;1.17;;;22.00;99.90;;;;;;7391754;19;20538;-76
2022/09/07 00:38:15;;;;;;;1.80;1.27;;;21.90;99.90;;;;;;7390527;19;20142;-76
2022/09/07 00:40:40;;;;;;;3.33;1.40;;;21.90;99.90;;;;;;7391475;19;20579;-76
2022/09/07 00:43:07;;;;;;;2.38;1.33;;;21.90;99.90;;;;;;7391518;19;20680;-75
2022/09/07 00:45:33;;;;;;;4.22;1.20;;;21.90;99.90;;;;;;7390576;19;20257;-77
2022/09/07 00:48:13;;;;;;;1.67;1.20;;;22.00;99.90;;;;;;7390130;19;20521;-75
2022/09/07 00:50:47;;;;;;;4.60;1.10;;;22.00;99.90;;;;;;7390659;19;20150;-76
2022/09/07 00:53:24;;;;;;;1.95;1.10;;;22.00;99.90;;;;;;7392117;19;20135;-75
2022/09/07 00:55:51;;;;;;;1.60;1.15;;;22.10;99.90;;;;;;7390105;19;20141;-76
2022/09/07 00:58:20;;;;;;;2.50;1.38;;;22.10;99.90;;;;;;7391595;19;20131;-76
2022/09/07 01:00:49;;;;;;;4.30;1.42;;;22.20;99.90;;;;;;7392394;19;20167;-78
2022/09/07 01:03:26;;;;;;;4.55;1.20;;;22.30;99.90;;;;;;7393070;19;20146;-79
2022/09/07 01:05:59;;;;;;;4.40;1.30;;;22.30;99.90;;;;;;7392269;19;20151;-79
2022/09/07 01:08:25;;;;;;;2.00;1.30;;;22.20;99.90;;;;;;7392124;19;20141;-80
2022/09/07 01:10:51;;;;;;;3.53;1.10;;;22.30;99.90;;;;;;7391125;19;20142;-79
2022/09/07 01:13:17;;;;;;;3.50;1.48;;;22.30;99.90;;;;;;7386704;19;20200;-79
2022/09/07 01:16:01;;;;;;;1.98;1.38;;;22.30;99.90;;;;;;7390658;19;20206;-80
2022/09/07 01:19:09;;;;;;;1.25;0.98;;;22.10;99.90;;;;;;7384530;19;20218;-80
2022/09/07 01:22:09;;;;;;;2.35;1.20;;;22.30;99.90;;;;;;7392274;19;20150;-80
2022/09/07 01:24:53;;;;;;;2.50;1.30;;;22.20;99.90;;;;;;7390853;19;20144;-78
2022/09/07 01:27:50;;;;;;;3.30;1.30;;;22.30;99.90;;;;;;7391678;19;20154;-79
2022/09/07 01:30:21;;;;;;;3.28;1.20;;;22.20;99.90;;;;;;7395603;19;20140;-79
2022/09/07 01:33:21;;;;;;;1.77;1.20;;;22.10;99.90;;;;;;7400620;19;20320;-80
2022/09/07 01:36:16;;;;;;;1.50;1.00;;;22.20;99.90;;;;;;7401122;19;20118;-80
2022/09/07 01:38:46;;;;;;;3.60;1.40;;;22.30;99.90;;;;;;7397140;19;20135;-80
2022/09/07 01:41:47;;;;;;;1.65;1.33;;;22.20;99.90;;;;;;7398170;19;20158;-80
2022/09/07 01:44:31;;;;;;;3.47;1.85;;;22.20;99.90;;;;;;7395858;19;20154;-79
2022/09/07 01:47:08;;;;;;;3.88;1.40;;;22.20;99.90;;;;;;7398759;19;20147;-79
2022/09/07 01:49:39;;;;;;;2.63;1.52;;;22.10;99.90;;;;;;7399700;19;20157;-80
2022/09/07 01:52:28;;;;;;;3.70;1.40;;;22.20;99.90;;;;;;7398639;19;20149;-79
2022/09/07 01:55:03;;;;;;;3.92;1.20;;;22.20;99.90;;;;;;7398213;19;20150;-81
2022/09/07 01:57:41;;;;;;;3.55;1.40;;;22.10;99.90;;;;;;7399791;19;20142;-79
2022/09/07 02:00:14;;;;;;;2.55;1.55;;;22.10;99.90;;;;;;7398466;19;20145;-79
2022/09/07 02:03:07;;;;;;;5.07;1.60;;;22.20;99.90;;;;;;7398720;19;20512;-80
2022/09/07 02:05:57;;;;;;;4.38;1.50;;;22.10;99.90;;;;;;7400218;19;20580;-79
2022/09/07 02:08:33;;;;;;;2.47;1.65;;;22.30;99.90;;;;;;7398716;19;20137;-79
2022/09/07 02:11:09;;;;;;;7.18;1.98;;;22.20;99.90;;;;;;7397776;19;20143;-80
2022/09/07 02:13:58;;;;;;;4.32;1.65;;;22.20;99.90;;;;;;7397299;19;20161;-81
2022/09/07 02:16:28;;;;;;;2.30;1.52;;;22.20;99.90;;;;;;7398880;19;20138;-79
2022/09/07 02:19:07;;;;;;;3.58;1.70;;;22.20;99.90;;;;;;7396978;19;20143;-79
2022/09/07 02:21:39;;;;;;;2.53;1.90;;;22.20;99.90;;;;;;7398397;19;20202;-80
2022/09/07 02:24:13;;;;;;;4.18;1.90;;;22.10;99.90;;;;;;7396963;19;20171;-79
2022/09/07 02:26:40;;;;;;;2.20;1.70;;;22.20;99.90;;;;;;7396868;19;20161;-79
2022/09/07 02:29:06;;;;;;;7.00;2.20;;;22.10;99.90;;;;;;7396373;19;20143;-79
2022/09/07 02:31:32;;;;;;;4.18;2.08;;;21.90;99.90;;;;;;7397151;19;20490;-78
2022/09/07 02:34:00;;;;;;;3.83;1.65;;;22.00;99.90;;;;;;7398438;19;20145;-81
2022/09/07 02:36:32;;;;;;;2.83;1.30;;;21.80;99.90;;;;;;7397637;19;20666;-78
2022/09/07 02:38:58;;;;;;;3.70;1.67;;;21.80;99.90;;;;;;7392954;19;20250;-79
2022/09/07 02:41:35;;;;;;;5.07;1.60;;;21.90;99.90;;;;;;7395571;19;20155;-79
2022/09/07 02:44:06;;;;;;;2.88;1.52;;;21.80;99.90;;;;;;7397411;19;20134;-80
2022/09/07 02:46:50;;;;;;;4.85;1.48;;;22.00;99.90;;;;;;7398151;19;20130;-78
2022/09/07 02:49:42;;;;;;;4.00;1.40;;;22.20;99.90;;;;;;7395770;19;20138;-76
2022/09/07 02:52:27;;;;;;;3.45;1.45;;;22.30;99.90;;;;;;7394965;19;20146;-76
2022/09/07 02:55:11;;;;;;;3.65;1.52;;;22.20;99.90;;;;;;7393182;19;20145;-76
2022/09/07 02:57:59;;;;;;;2.92;1.10;;;22.10;99.90;;;;;;7397454;19;20134;-77
2022/09/07 03:00:24;;;;;;;1.48;1.27;;;22.10;99.90;;;;;;7396803;19;20135;-76
2022/09/07 03:02:59;;;;;;;5.05;1.20;;;22.10;99.90;;;;;;7396155;19;20122;-75
2022/09/07 03:05:25;;;;;;;2.67;1.60;;;22.20;99.90;;;;;;7394196;19;20169;-75
2022/09/07 03:08:00;;;;;;;3.25;1.40;;;22.30;99.90;;;;;;7394884;19;20135;-75
2022/09/07 03:10:28;;;;;;;3.97;1.80;;;22.30;99.90;;;;;;7395024;19;20130;-75
2022/09/07 03:12:54;;;;;;;3.75;1.35;;;22.30;99.90;;;;;;7391262;19;20151;-75
2022/09/07 03:15:22;;;;;;;3.83;1.30;;;22.30;99.90;;;;;;7392897;19;20161;-75
2022/09/07 03:17:48;;;;;;;4.93;2.10;;;22.20;99.90;;;;;;7394553;19;20228;-75
2022/09/07 03:20:15;;;;;;;2.20;1.50;;;22.10;99.90;;;;;;7392204;19;20962;-75
2022/09/07 03:22:43;;;;;;;1.85;1.20;;;22.10;99.90;;;;;;7394605;19;20165;-76
2022/09/07 03:25:09;;;;;;;2.80;1.48;;;22.10;99.90;;;;;;7394694;19;20130;-77
2022/09/07 03:27:35;;;;;;;2.85;1.25;;;22.10;99.90;;;;;;7393797;19;20166;-76
2022/09/07 03:30:03;;;;;;;3.58;1.58;;;21.80;99.90;;;;;;7393081;19;20654;-76
2022/09/07 03:32:34;;;;;;;2.72;1.60;;;21.70;99.90;;;;;;7394342;19;20185;-76
2022/09/07 03:35:01;;;;;;;2.58;1.75;;;21.40;99.90;;;;;;7395172;19;20134;-76
2022/09/07 03:37:27;;;;;;;4.05;1.67;;;21.50;99.90;;;;;;7391729;19;20135;-77
2022/09/07 03:39:53;;;;;;;4.50;1.80;;;21.70;99.90;;;;;;7393380;19;20135;-77
2022/09/07 03:42:20;;;;;;;2.58;1.60;;;22.00;99.90;;;;;;7395023;19;20793;-77
2022/09/07 03:44:47;;;;;;;2.08;1.42;;;22.00;99.90;;;;;;7393550;19;20154;-77
2022/09/07 03:47:13;;;;;;;2.63;1.58;;;22.10;99.90;;;;;;7393391;19;20492;-76
2022/09/07 03:49:39;;;;;;;4.07;1.90;;;22.10;99.90;;;;;;7392808;19;20146;-76
2022/09/07 03:52:05;;;;;;;2.72;1.80;;;22.10;99.90;;;;;;7390805;19;20491;-76
2022/09/07 03:54:31;;;;;;;2.38;1.60;;;22.00;99.90;;;;;;7392115;19;20138;-76
2022/09/07 03:56:56;;;;;;;1.77;1.52;;;21.90;99.90;;;;;;7393357;19;20141;-76
2022/09/07 03:59:22;;;;;;;1.73;1.50;;;21.90;99.90;;;;;;7391247;19;20163;-76
2022/09/07 04:01:48;;;;;;;3.03;1.67;;;21.90;99.90;;;;;;7394514;19;20150;-76
2022/09/07 04:04:14;;;;;;;2.20;1.40;;;21.70;99.90;;;;;;7395079;19;20135;-76
2022/09/07 04:06:40;;;;;;;3.42;1.63;;;21.40;99.90;;;;;;7394158;19;20142;-76
2022/09/07 04:09:07;;;;;;;2.65;1.40;;;21.10;99.90;;;;;;7394259;19;20834;-75
2022/09/07 04:11:34;;;;;;;2.03;1.60;;;21.10;99.90;;;;;;7393448;19;20157;-77
2022/09/07 04:14:00;;;;;;;3.70;2.35;;;21.20;99.90;;;;;;7392300;19;20134;-77
2022/09/07 04:16:27;;;;;;;4.32;1.77;;;21.20;99.90;;;;;;7394684;19;20134;-77
2022/09/07 04:18:57;;;;;;;6.32;1.73;;;21.40;99.90;;;;;;7390616;19;20141;-76
2022/09/07 04:21:25;;;;;;;2.28;1.73;;;21.50;99.90;;;;;;7393462;19;20145;-77
2022/09/07 04:23:52;;;;;;;3.75;1.90;;;21.50;99.90;;;;;;7395275;19;20146;-76
2022/09/07 04:26:23;;;;;;;1.80;1.60;;;21.30;99.90;;;;;;7393034;19;20225;-77
2022/09/07 04:28:50;;;;;;;1.90;1.55;;;21.10;99.90;;;;;;7394649;19;20135;-76
2022/09/07 04:31:17;;;;;;;5.47;1.60;;;21.20;99.90;;;;;;7393470;19;20173;-76
2022/09/07 04:33:44;;;;;;;3.45;1.85;;;21.40;99.90;;;;;;7392531;19;20180;-76
2022/09/07 04:36:11;;;;;;;6.20;1.60;;;21.30;99.90;;;;;;7391169;19;20214;-76
2022/09/07 04:38:38;;;;;;;2.78;1.92;;;21.20;99.90;;;;;;7392907;19;20150;-76
2022/09/07 04:41:11;;;;;;;2.75;2.10;;;21.40;99.90;;;;;;7392974;19;20571;-76
2022/09/07 04:43:38;;;;;;;3.08;1.75;;;21.40;99.90;;;;;;7394558;19;20142;-75
2022/09/07 04:46:29;;;;;;;4.55;1.95;;;21.50;99.90;;;;;;7393101;19;20147;-76
2022/09/07 04:48:56;;;;;;;3.90;1.65;;;21.60;99.90;;;;;;7391643;19;20142;-76
2022/09/07 04:51:25;;;;;;;3.75;2.05;;;21.60;99.90;;;;;;7391091;19;20145;-76
2022/09/07 04:53:52;;;;;;;4.82;1.77;;;21.70;99.90;;;;;;7391014;19;20138;-76
2022/09/07 04:56:20;;;;;;;3.00;1.90;;;21.50;99.90;;;;;;7391747;19;20149;-75
2022/09/07 04:58:46;;;;;;;5.47;1.75;;;21.50;99.90;;;;;;7390153;19;20217;-75
2022/09/07 05:01:18;;;;;;;5.43;1.85;;;21.50;99.90;;;;;;7391154;19;20489;-76
2022/09/07 05:03:45;;;;;;;4.00;2.00;;;21.40;99.90;;;;;;7391160;19;20148;-77
2022/09/07 05:06:11;;;;;;;4.30;2.03;;;21.10;99.90;;;;;;7391638;19;20172;-76
2022/09/07 05:08:40;;;;;;;5.55;1.67;;;21.10;99.90;;;;;;7389769;19;20183;-76
2022/09/07 05:11:06;;;;;;;3.90;1.60;;;20.90;99.90;;;;;;7388251;19;20154;-74
2022/09/07 05:13:32;;;;;;;4.35;1.70;;;20.60;99.90;;;;;;7393105;19;20142;-76
2022/09/07 05:15:59;;;;;;;4.47;1.80;;;20.60;99.90;;;;;;7392899;19;20610;-75
2022/09/07 05:18:26;;;;;;;3.10;1.73;;;20.50;99.90;;;;;;7388753;19;20144;-76
2022/09/07 05:20:52;;;;;;;1.88;1.45;;;20.50;99.90;;;;;;7393128;19;20951;-76
2022/09/07 05:23:18;;;;;;;5.82;1.80;;;20.60;99.90;;;;;;7390487;19;20135;-76
2022/09/07 05:25:45;;;;;;;2.53;1.65;;;20.60;99.90;;;;;;7388544;19;20167;-75
2022/09/07 05:28:12;;;;;;;4.30;1.77;;;20.70;99.90;;;;;;7389135;19;20139;-76
2022/09/07 05:30:38;;;;;;;4.50;2.08;;;20.90;99.90;;;;;;7387967;19;20173;-77
2022/09/07 05:33:06;;;;;;;3.33;1.63;;;21.10;99.90;;;;;;7388841;19;20133;-78
2022/09/07 05:35:33;;;;;;;3.45;1.55;;;21.10;99.90;;;;;;7387584;19;20145;-76
2022/09/07 05:37:59;;;;;;;3.83;1.70;;;21.20;99.90;;;;;;7389188;19;20161;-78
2022/09/07 05:40:24;;;;;;;5.90;1.90;;;21.40;99.90;;;;;;7391837;19;20165;-80
2022/09/07 05:42:50;;;;;;;3.33;2.10;;;21.20;99.90;;;;;;7392826;19;20581;-81
2022/09/07 05:45:16;;;;;;;3.72;1.70;;;21.10;99.90;;;;;;7393336;19;20135;-80
2022/09/07 05:47:42;;;;;;;3.97;1.67;;;21.10;99.90;;;;;;7393390;19;20142;-81
2022/09/07 05:50:08;;;;;;;3.83;1.70;;;21.00;99.90;;;;;;7392787;19;21677;-80
2022/09/07 05:52:35;;;;;;;5.65;1.85;;;21.20;99.90;;;;;;7394054;19;20630;-81
2022/09/07 05:55:01;;;;;;;3.67;2.17;;;21.40;99.90;;;;;;7392705;19;20196;-80
2022/09/07 05:57:27;;;;;;;2.83;1.88;;;21.50;99.90;;;;;;7390059;19;20184;-78
2022/09/07 05:59:53;;;;;;;3.95;1.73;;;21.70;99.90;;;;;;7389914;19;20130;-77
2022/09/07 06:02:19;;;;;;;3.17;1.70;;;21.60;99.90;;;;;;7390635;19;20147;-77
2022/09/07 06:04:46;;;;;;;3.92;1.67;;;21.60;99.90;;;;;;7390282;19;20659;-75
2022/09/07 06:07:12;;;;;;;4.97;1.70;;;21.40;99.90;;;;;;7391332;19;20134;-76
2022/09/07 06:09:39;;;;;;;5.60;1.70;;;21.20;99.90;;;;;;7391706;19;20148;-77
2022/09/07 06:12:05;;;;;;;3.20;1.85;;;21.10;99.90;;;;;;7389544;19;20151;-77
2022/09/07 06:14:32;;;;;;;3.45;1.95;;;21.20;99.90;;;;;;7390435;19;20150;-76
2022/09/07 06:16:58;;;;;;;4.60;1.67;;;21.40;99.90;;;;;;7395871;19;20510;-75
2022/09/07 06:19:24;;;;;;;5.15;1.77;;;21.60;99.90;;;;;;7396903;19;20134;-77
2022/09/07 06:21:50;;;;;;;3.30;1.90;;;21.70;99.90;;;;;;7397297;19;20620;-77
2022/09/07 06:24:16;;;;;;;2.95;1.50;;;21.70;99.90;;;;;;7396924;19;20142;-78
2022/09/07 06:26:41;;;;;;;8.55;2.13;;;21.70;99.90;;;;;;7397926;19;20161;-76
2022/09/07 06:29:08;;;;;;;3.92;2.08;;;21.90;99.90;;;;;;7397028;19;20134;-77
2022/09/07 06:31:37;;;;;;;5.70;1.88;;;22.00;99.90;;;;;;7400483;19;20147;-81
2022/09/07 06:34:02;;;;;;;5.40;2.10;;;22.10;99.90;;;;;;7398040;19;20146;-79
2022/09/07 06:36:28;;;;;;;5.22;1.80;;;22.10;99.90;;;;;;7398220;19;20150;-78
2022/09/07 06:39:00;;;;;;;2.45;2.08;;;22.00;99.90;;;;;;7396949;19;20146;-81
2022/09/07 06:41:28;;;;;;;3.00;2.00;;;22.00;99.90;;;;;;7398451;19;20666;-81
2022/09/07 06:43:56;;;;;;;5.25;1.80;;;22.10;99.90;;;;;;7398623;19;20635;-80
2022/09/07 06:46:23;;;;;;;2.30;1.50;;;22.20;99.90;;;;;;7398155;19;20654;-80
2022/09/07 06:48:55;;;;;;;3.47;1.60;;;22.30;99.90;;;;;;7398829;19;20167;-80
2022/09/07 06:51:25;;;;;;;4.10;1.65;;;22.30;99.90;;;;;;7399052;19;20155;-80
2022/09/07 06:53:55;;;;;;;2.63;1.40;;;22.10;99.90;;;;;;7399613;19;20599;-80
2022/09/07 06:56:26;;;;;;;4.47;1.70;;;22.10;99.90;;;;;;7401530;19;20138;-81
2022/09/07 06:58:53;;;;;;;4.20;1.88;;;22.30;99.90;;;;;;7398730;19;20157;-80
2022/09/07 07:01:20;;;;;;;2.85;1.40;;;22.50;99.90;;;;;;7396617;19;20614;-79
2022/09/07 07:03:47;;;;;;;2.72;1.58;;;22.60;99.90;;;;;;7398694;19;20145;-79
2022/09/07 07:06:13;;;;;;;3.92;1.70;;;22.70;99.90;;;;;;7399463;19;20143;-79
2022/09/07 07:08:39;;;;;;;2.75;1.80;;;22.70;99.90;;;;;;7397680;19;20180;-79
2022/09/07 07:11:07;;;;;;;4.63;2.08;;;22.80;99.90;;;;;;7398256;19;20161;-79
2022/09/07 07:13:34;;;;;;;6.38;2.00;;;23.00;99.90;;;;;;7396696;19;20626;-79
2022/09/07 07:16:02;;;;;;;7.50;2.35;;;23.10;99.90;;;;;;7397471;19;20540;-79
2022/09/07 07:18:29;;;;;;;4.18;2.20;;;23.10;99.90;;;;;;7395493;19;20146;-77
2022/09/07 07:20:55;;;;;;;6.60;2.70;;;23.00;99.90;;;;;;7398207;19;20131;-77
2022/09/07 07:23:21;;;;;;;9.25;2.22;;;23.00;99.90;;;;;;7398668;19;20139;-78
2022/09/07 07:25:46;;;;;;;6.72;2.42;;;23.00;99.90;;;;;;7394363;19;20134;-78
2022/09/07 07:28:12;;;;;;;5.82;2.30;;;22.90;99.90;;;;;;7391085;19;20498;-79
2022/09/07 07:30:38;;;;;;;4.80;2.33;;;22.90;99.90;;;;;;7394363;19;20154;-77
2022/09/07 07:33:06;;;;;;;2.00;1.50;;;22.70;99.90;;;;;;7393386;19;20141;-77
2022/09/07 07:35:33;;;;;;;4.60;2.15;;;22.70;99.90;;;;;;7393326;19;20150;-77
2022/09/07 07:37:59;;;;;;;5.07;2.10;;;22.90;99.90;;;;;;7395430;19;20143;-77
2022/09/07 07:40:25;;;;;;;4.63;1.90;;;23.10;99.90;;;;;;7396492;19;20142;-77
2022/09/07 07:42:51;;;;;;;4.57;1.70;;;23.30;99.90;;;;;;7397338;19;20146;-79
2022/09/07 07:45:17;;;;;;;3.35;1.38;;;23.40;99.90;;;;;;7397604;19;20138;-78
2022/09/07 07:47:47;;;;;;;4.32;1.42;;;23.70;99.90;;;;;;7394290;19;20507;-77
2022/09/07 07:50:13;;;;;;;4.03;1.50;;;23.90;99.90;;;;;;7395115;19;20134;-78
2022/09/07 07:52:39;;;;;;;4.80;1.88;;;24.10;99.90;;;;;;7393074;19;20173;-77
2022/09/07 07:55:06;;;;;;;4.07;1.73;;;24.30;99.90;;;;;;7394065;19;20599;-76
2022/09/07 07:57:32;;;;;;;2.60;1.50;;;24.80;99.90;;;;;;7394404;19;20151;-75
2022/09/07 07:59:58;;;;;;;3.38;1.80;;;25.40;99.90;;;;;;7394625;19;20588;-77
2022/09/07 08:02:25;;;;;;;3.00;1.60;;;26.00;99.90;;;;;;7395136;19;20138;-76
2022/09/07 08:04:51;;;;;;;3.45;1.42;;;26.40;99.90;;;;;;7395096;19;20516;-79
2022/09/07 08:07:18;;;;;;;6.05;1.55;;;26.80;99.90;;;;;;7394916;19;20139;-77
2022/09/07 08:09:45;;;;;;;5.28;1.45;;;26.90;99.90;;;;;;7392574;19;20172;-77
2022/09/07 08:12:17;;;;;;;3.60;1.45;;;27.00;99.90;;;;;;7393083;19;20151;-76
2022/09/07 08:14:45;;;;;;;7.60;1.63;;;27.00;99.90;;;;;;7392070;19;20264;-76
2022/09/07 08:17:13;;;;;;;3.55;1.60;;;27.10;99.90;;;;;;7395501;19;20149;-77
2022/09/07 08:19:40;;;;;;;2.50;1.30;;;27.10;99.90;;;;;;7393830;19;20158;-78
2022/09/07 08:22:06;;;;;;;3.30;1.42;;;27.10;99.90;;;;;;7393090;19;20153;-77
2022/09/07 08:24:33;;;;;;;2.58;1.30;;;27.20;99.90;;;;;;7393043;19;20472;-76
2022/09/07 08:26:59;;;;;;;3.45;1.80;;;27.30;99.90;;;;;;7394966;19;20610;-78
2022/09/07 08:29:28;;;;;;;5.53;2.03;;;27.40;99.90;;;;;;7392241;19;20146;-79
2022/09/07 08:31:54;;;;;;;5.22;1.73;;;27.30;99.90;;;;;;7395368;19;20142;-79
2022/09/07 08:34:20;;;;;;;4.78;1.42;;;27.40;99.90;;;;;;7394565;19;20173;-78
2022/09/07 08:36:46;;;;;;;4.18;1.45;;;27.30;99.90;;;;;;7393280;19;20154;-78
2022/09/07 08:39:12;;;;;;;4.00;1.88;;;27.20;99.90;;;;;;7391420;19;21084;-80
2022/09/07 08:41:51;;;;;;;3.75;1.85;;;27.20;99.90;;;;;;7394479;19;20150;-79
2022/09/07 08:44:17;;;;;;;4.38;1.50;;;27.20;99.90;;;;;;7395220;19;20631;-78
2022/09/07 08:46:57;;;;;;;3.30;1.65;;;27.20;99.90;;;;;;7397133;19;20130;-79
2022/09/07 08:49:36;;;;;;;7.18;1.98;;;26.90;99.90;;;;;;7396069;19;20155;-78
2022/09/07 08:52:11;;;;;;;4.15;1.60;;;26.70;99.90;;;;;;7395411;19;20138;-80
2022/09/07 08:54:43;;;;;;;3.78;1.50;;;26.50;99.90;;;;;;7395660;19;20173;-78
2022/09/07 08:57:09;;;;;;;3.50;1.38;;;26.30;99.90;;;;;;7395598;19;20135;-80
2022/09/07 08:59:42;;;;;;;5.25;1.58;;;26.10;99.90;;;;;;7392402;19;20822;-79
2022/09/07 09:02:13;;;;;;;5.18;1.63;;;26.10;99.90;;;;;;7396841;19;20140;-79
2022/09/07 09:04:41;;;;;;;5.40;2.00;;;26.10;99.90;;;;;;7395513;19;20143;-79
2022/09/07 09:07:16;;;;;;;7.32;2.17;;;26.30;99.90;;;;;;7394786;19;20242;-78
2022/09/07 09:10:11;;;;;;;2.25;1.40;;;26.60;99.90;;;;;;7396231;19;20146;-79
2022/09/07 09:12:54;;;;;;;4.10;1.33;;;26.80;99.90;;;;;;7394742;19;20153;-79
2022/09/07 09:15:44;;;;;;;2.40;1.42;;;26.90;99.90;;;;;;7394185;19;20173;-78
2022/09/07 09:18:28;;;;;;;3.55;1.42;;;26.80;99.90;;;;;;7391891;19;20146;-77
2022/09/07 09:20:56;;;;;;;3.70;1.55;;;26.70;99.90;;;;;;7392970;19;20138;-79
2022/09/07 09:23:27;;;;;;;2.47;1.40;;;26.80;99.90;;;;;;7393519;19;20146;-79
2022/09/07 09:26:01;;;;;;;2.78;1.55;;;27.00;99.90;;;;;;7391748;19;20135;-77
2022/09/07 09:28:29;;;;;;;8.40;1.50;;;27.20;99.90;;;;;;7392866;19;20576;-77
2022/09/07 09:30:55;;;;;;;3.85;1.27;;;27.20;99.90;;;;;;7392218;19;20186;-78
2022/09/07 09:33:24;;;;;;;3.70;1.50;;;27.20;99.90;;;;;;7395582;19;20144;-80
2022/09/07 09:35:53;;;;;;;4.78;1.30;;;27.30;99.90;;;;;;7392738;19;20141;-79
2022/09/07 09:38:39;;;;;;;6.35;1.60;;;27.30;99.90;;;;;;7391732;19;20155;-78
2022/09/07 09:41:07;;;;;;;4.32;1.20;;;27.30;99.90;;;;;;7391828;19;20201;-78
2022/09/07 09:43:36;;;;;;;2.75;1.40;;;27.30;99.90;;;;;;7392291;19;20166;-78
2022/09/07 09:46:02;;;;;;;7.93;1.63;;;27.20;99.90;;;;;;7390599;19;20152;-78
2022/09/07 09:48:39;;;;;;;4.10;1.50;;;27.00;99.90;;;;;;7390757;19;20135;-78
2022/09/07 09:51:07;;;;;;;3.25;1.73;;;27.00;99.90;;;;;;7395550;19;20571;-79
2022/09/07 09:53:51;;;;;;;2.72;1.58;;;27.00;99.90;;;;;;7400772;19;20142;-78
2022/09/07 09:56:17;;;;;;;2.33;1.30;;;27.00;99.90;;;;;;7401296;19;20135;-80
2022/09/07 09:58:46;;;;;;;2.13;1.30;;;27.00;99.90;;;;;;7400759;19;20321;-80
2022/09/07 10:01:35;;;;;;;4.43;1.60;;;26.80;99.90;;;;;;7399505;19;20178;-78
2022/09/07 10:04:23;;;;;;;3.72;1.60;;;26.60;99.90;;;;;;7397747;19;20147;-78
2022/09/07 10:06:51;;;;;;;4.30;1.77;;;26.50;99.90;;;;;;7399937;19;20130;-78
2022/09/07 10:09:23;;;;;;;3.15;1.52;;;26.40;99.90;;;;;;7398848;19;20142;-78
2022/09/07 10:11:58;;;;;;;4.95;1.90;;;26.40;99.90;;;;;;7398413;19;20170;-80
2022/09/07 10:14:28;;;;;;;3.15;1.50;;;26.40;99.90;;;;;;7399496;19;20154;-78
2022/09/07 10:16:54;;;;;;;3.60;1.45;;;26.30;99.90;;;;;;7400269;19;20146;-78
2022/09/07 10:19:41;;;;;;;2.90;1.50;;;26.20;99.90;;;;;;7399300;19;20130;-79
2022/09/07 10:22:36;;;;;;;3.83;1.80;;;26.10;99.90;;;;;;7399351;19;20221;-80
2022/09/07 10:25:23;;;;;;;3.38;1.25;;;26.00;99.90;;;;;;7399563;19;20159;-80
2022/09/07 10:28:25;;;;;;;4.60;1.55;;;25.90;99.90;;;;;;7401796;19;20504;-80
2022/09/07 10:31:20;;;;;;;4.93;1.50;;;25.90;99.90;;;;;;7398870;19;20154;-77
2022/09/07 10:34:02;;;;;;;2.60;1.55;;;25.80;99.90;;;;;;7400647;19;20151;-77
2022/09/07 10:36:46;;;;;;;5.80;1.65;;;25.80;99.90;;;;;;7399471;19;20154;-79
2022/09/07 10:39:30;;;;;;;3.45;1.73;;;25.80;99.90;;;;;;7396040;19;20594;-78
2022/09/07 10:42:01;;;;;;;3.55;1.65;;;25.70;99.90;;;;;;7400429;19;20131;-78
2022/09/07 10:45:13;;;;;;;3.78;1.60;;;25.70;99.90;;;;;;7401351;19;20138;-78
2022/09/07 10:48:12;;;;;;;4.18;1.30;;;25.60;99.90;;;;;;7398582;19;20146;-79
2022/09/07 10:50:50;;;;;;;3.90;1.58;;;25.60;99.90;;;;;;7397674;19;20154;-78
2022/09/07 10:53:35;;;;;;;5.82;1.85;;;25.80;99.90;;;;;;7400505;19;20142;-78
2022/09/07 10:56:38;;;;;;;6.63;1.85;;;25.90;99.90;;;;;;7400151;19;20134;-78
2022/09/07 10:59:09;;;;;;;5.00;1.83;;;25.90;99.90;;;;;;7396771;19;20154;-79
2022/09/07 11:01:50;;;;;;;4.35;1.80;;;25.80;99.90;;;;;;7400894;19;20146;-81
2022/09/07 11:04:24;;;;;;;5.88;2.33;;;25.80;99.90;;;;;;7397565;19;20770;-79
2022/09/07 11:07:00;;;;;;;2.85;1.90;;;25.70;99.90;;;;;;7397444;19;20157;-79
2022/09/07 11:10:02;;;;;;;4.35;2.20;;;25.70;99.90;;;;;;7394192;19;20142;-78
2022/09/07 11:12:35;;;;;;;5.45;2.13;;;25.60;99.90;;;;;;7390977;19;20173;-77
2022/09/07 11:15:14;;;;;;;2.80;1.80;;;25.60;99.90;;;;;;7396740;19;20155;-78
2022/09/07 11:18:34;;;;;;;3.15;1.77;;;25.70;99.90;;;;;;7393668;19;20150;-77
2022/09/07 11:21:02;;;;;;;3.25;1.77;;;25.70;99.90;;;;;;7392614;19;20173;-80
2022/09/07 11:23:37;;;;;;;4.90;1.85;;;25.80;99.90;;;;;;7396160;19;20620;-77
2022/09/07 11:26:29;;;;;;;4.25;1.80;;;26.00;99.90;;;;;;7395528;19;20134;-79
2022/09/07 11:29:03;;;;;;;3.58;1.90;;;26.10;99.90;;;;;;7396502;19;20158;-79
2022/09/07 11:31:40;;;;;;;4.13;1.65;;;26.30;99.90;;;;;;7396244;19;20142;-77
2022/09/07 11:34:39;;;;;;;4.03;2.20;;;26.40;99.90;;;;;;7395302;19;20252;-78
2022/09/07 11:37:07;;;;;;;6.00;1.85;;;26.50;99.90;;;;;;7396701;19;20750;-78
2022/09/07 11:39:46;;;;;;;2.60;1.63;;;26.50;99.90;;;;;;7394460;19;20135;-77
2022/09/07 11:42:33;;;;;;;5.60;1.60;;;26.50;99.90;;;;;;7394576;19;20138;-78
2022/09/07 11:45:11;;;;;;;6.38;1.83;;;26.60;99.90;;;;;;7395715;19;20138;-78
2022/09/07 11:47:45;;;;;;;3.10;1.70;;;26.70;99.90;;;;;;7394482;19;20509;-78
2022/09/07 11:50:17;;;;;;;4.38;1.80;;;26.80;99.90;;;;;;7400873;19;20150;-77
2022/09/07 11:52:56;;;;;;;3.17;1.75;;;26.80;99.90;;;;;;7395095;19;20230;-79
2022/09/07 11:55:29;;;;;;;3.55;1.70;;;26.80;99.90;;;;;;7394153;19;20487;-79
2022/09/07 11:58:30;;;;;;;4.35;1.85;;;27.00;99.90;;;;;;7394936;19;20557;-79
2022/09/07 12:01:17;;;;;;;4.03;1.63;;;27.20;99.90;;;;;;7394598;19;20130;-77
2022/09/07 12:04:08;;;;;;;2.47;1.55;;;27.20;99.90;;;;;;7393131;19;20219;-77
2022/09/07 12:07:01;;;;;;;6.07;2.40;;;27.00;99.90;;;;;;7393044;19;20520;-77
2022/09/07 12:09:30;;;;;;;5.45;1.77;;;27.00;99.90;;;;;;7394374;19;20154;-78
2022/09/07 12:12:07;;;;;;;3.63;1.80;;;27.00;99.90;;;;;;7394081;19;20170;-78
2022/09/07 12:15:06;;;;;;;3.88;1.77;;;27.10;99.90;;;;;;7393234;19;20130;-78
2022/09/07 12:17:55;;;;;;;3.58;1.45;;;27.00;99.90;;;;;;7390925;19;20138;-77
2022/09/07 12:20:26;;;;;;;2.72;1.30;;;27.00;99.90;;;;;;7394491;19;20125;-77
2022/09/07 12:22:58;;;;;;;3.70;1.33;;;27.00;99.90;;;;;;7392062;19;20137;-78
2022/09/07 12:25:24;;;;;;;3.80;1.73;;;27.10;99.90;;;;;;7393671;19;20561;-79
2022/09/07 12:27:51;;;;;;;4.00;1.45;;;27.20;99.90;;;;;;7393334;19;20146;-78
2022/09/07 12:30:19;;;;;;;3.25;1.48;;;27.30;99.90;;;;;;7394075;19;20239;-77
2022/09/07 12:32:54;;;;;;;2.28;1.50;;;27.10;99.90;;;;;;7393029;19;20164;-78
2022/09/07 12:35:32;;;;;;;2.40;1.60;;;27.00;99.90;;;;;;7392570;19;20157;-78
2022/09/07 12:38:17;;;;;;;6.80;1.73;;;27.10;99.90;;;;;;7392255;19;20138;-78
2022/09/07 12:41:19;;;;;;;4.20;1.33;;;27.10;99.90;;;;;;7394560;19;20143;-77
2022/09/07 12:43:52;;;;;;;3.78;1.30;;;27.30;99.90;;;;;;7393592;19;20131;-76
2022/09/07 12:46:30;;;;;;;2.53;1.10;;;27.30;99.90;;;;;;7393093;19;20795;-78
2022/09/07 12:49:27;;;;;;;3.13;1.27;;;27.00;99.90;;;;;;7391363;19;20475;-78
2022/09/07 12:52:00;;;;;;;2.58;1.33;;;27.10;99.90;;;;;;7392719;19;20131;-78
2022/09/07 12:54:49;;;;;;;5.57;1.73;;;27.20;99.90;;;;;;7395754;19;20570;-78
2022/09/07 12:57:43;;;;;;;3.28;1.42;;;27.40;99.90;;;;;;7393193;19;20158;-78
2022/09/07 13:00:41;;;;;;;3.17;1.35;;;27.70;99.90;;;;;;7391320;19;20141;-78
2022/09/07 13:03:23;;;;;;;3.38;1.30;;;27.80;99.90;;;;;;7392629;19;20137;-79
2022/09/07 13:05:57;;;;;;;5.80;1.77;;;27.70;99.90;;;;;;7394750;19;20134;-78
2022/09/07 13:08:47;;;;;;;3.22;1.30;;;27.60;99.90;;;;;;7394612;19;20126;-78
2022/09/07 13:11:18;;;;;;;1.83;1.25;;;27.40;99.90;;;;;;7392275;19;20186;-79
2022/09/07 13:14:01;;;;;;;2.42;1.70;;;27.20;99.90;;;;;;7392438;19;20142;-79
2022/09/07 13:16:38;;;;;;;1.92;1.08;;;27.30;99.90;;;;;;7392727;19;20126;-79
2022/09/07 13:19:05;;;;;;;1.90;1.27;;;27.30;99.90;;;;;;7391824;19;20130;-78